createdAt,value
2024-04-05T14:28:09.790Z,20.17
2024-04-05T14:33:14.009Z,20.74
2024-04-05T14:38:18.389Z,21.06
2024-04-05T14:43:24.893Z,21.18
2024-04-05T14:48:29.180Z,21.20
2024-04-05T14:53:34.717Z,21.21
2024-04-05T14:58:41.097Z,21.21
2024-04-05T15:03:45.411Z,21.26
2024-04-05T15:08:53.581Z,21.36
2024-04-05T15:14:01.359Z,21.65
2024-04-05T15:19:05.636Z,21.98
2024-04-05T15:24:10.268Z,22.32
2024-04-05T15:29:16.753Z,22.52
2024-04-05T15:34:20.847Z,22.55
2024-04-05T15:39:26.321Z,22.57
2024-04-05T15:44:35.941Z,22.53
2024-04-05T15:49:40.780Z,22.33
2024-04-05T15:54:51.159Z,22.18
2024-04-05T15:59:57.640Z,22.05
2024-04-05T16:05:02.156Z,21.97
2024-04-05T16:10:07.896Z,22.00
2024-04-05T16:15:14.055Z,22.10
2024-04-05T16:20:18.648Z,22.15
2024-04-05T16:25:22.761Z,22.14
2024-04-05T16:30:30.719Z,22.13
2024-04-05T16:35:34.796Z,22.08
2024-04-05T16:40:39.391Z,22.03
2024-04-05T16:45:46.255Z,21.98
2024-04-05T16:50:50.539Z,21.89
2024-04-05T16:55:55.066Z,21.82
2024-04-05T17:01:01.372Z,21.70
2024-04-05T17:06:09.866Z,21.56
2024-04-05T17:11:15.340Z,21.42
2024-04-05T17:16:23.435Z,21.29
2024-04-05T17:21:44.931Z,21.17
2024-04-05T17:26:52.741Z,21.02
2024-04-05T17:32:05.044Z,20.91
2024-04-05T17:37:10.038Z,20.74
2024-04-05T17:42:14.248Z,20.62
2024-04-05T17:47:20.183Z,20.52
2024-04-05T17:52:24.524Z,20.39
2024-04-05T17:57:28.717Z,20.28
2024-04-05T18:02:36.676Z,20.16
2024-04-05T18:07:41.205Z,20.02
2024-04-05T18:12:45.325Z,19.96
2024-04-05T18:17:51.960Z,19.92
2024-04-05T18:22:56.161Z,19.84
2024-04-05T18:28:00.418Z,19.79
2024-04-05T18:33:07.850Z,19.75
2024-04-05T18:38:12.889Z,19.70
2024-04-05T18:43:20.732Z,19.65
2024-04-05T18:48:27.194Z,19.61
2024-04-05T18:53:31.554Z,19.55
2024-04-05T18:58:37.258Z,19.47
2024-04-05T19:03:58.945Z,19.41
2024-04-05T19:09:25.330Z,19.29
2024-04-05T19:14:31.342Z,19.18
2024-04-05T19:19:38.068Z,19.08
2024-04-05T19:24:42.696Z,19.00
2024-04-05T19:29:48.467Z,18.94
2024-04-05T19:34:56.050Z,18.86
2024-04-05T19:40:11.719Z,18.74
2024-04-05T19:45:20.290Z,18.62
2024-04-05T19:50:28.082Z,18.53
2024-04-05T19:55:34.921Z,18.47
2024-04-05T20:00:39.449Z,18.47
2024-04-05T20:05:49.449Z,18.50
2024-04-05T20:10:58.862Z,18.55
2024-04-05T20:16:05.343Z,18.62
2024-04-05T20:21:14.684Z,18.68
2024-04-05T20:26:21.052Z,18.70
2024-04-05T20:31:38.497Z,18.76
2024-04-05T20:36:46.742Z,18.82
2024-04-05T20:41:51.068Z,18.86
2024-04-05T20:46:55.375Z,18.91
2024-04-05T20:52:02.486Z,18.97
2024-04-05T20:57:07.511Z,19.00
2024-04-05T21:02:11.693Z,19.02
2024-04-05T21:07:17.742Z,19.06
2024-04-05T21:12:21.998Z,19.11
2024-04-05T21:17:26.064Z,19.19
2024-04-05T21:22:33.018Z,19.23
2024-04-05T21:27:37.050Z,19.24
2024-04-05T21:32:41.385Z,19.25
2024-04-05T21:37:47.520Z,19.25
2024-04-05T21:42:51.655Z,19.24
2024-04-05T21:47:56.082Z,19.24
2024-04-05T21:53:02.806Z,19.24
2024-04-05T21:58:07.141Z,19.21
2024-04-05T22:03:11.390Z,19.21
2024-04-05T22:08:18.733Z,19.19
2024-04-05T22:13:22.839Z,19.17
2024-04-05T22:18:27.733Z,19.16
2024-04-05T22:23:33.747Z,19.18
2024-04-05T22:28:37.887Z,19.16
2024-04-05T22:33:42.031Z,19.15
2024-04-05T22:38:48.620Z,19.13
2024-04-05T22:43:52.601Z,19.10
2024-04-05T22:48:56.895Z,19.03
2024-04-05T22:54:04.401Z,18.99
2024-04-05T22:59:09.540Z,18.96
2024-04-05T23:04:14.005Z,18.89
2024-04-05T23:09:20.056Z,18.86
2024-04-05T23:14:24.189Z,18.81
2024-04-05T23:19:30.227Z,18.78
2024-04-05T23:24:36.159Z,18.76
2024-04-05T23:29:40.468Z,18.72
